createdAt,value
2023-04-12T00:09:01.697Z,0.11
2023-04-12T00:21:02.182Z,0.00
2023-04-12T00:33:02.608Z,0.00
2023-04-12T00:45:03.047Z,0.33
2023-04-12T00:57:03.475Z,0.50
2023-04-12T01:09:03.926Z,0.03
2023-04-12T01:21:04.436Z,0.00
2023-04-12T01:33:04.889Z,0.00
2023-04-12T01:45:05.325Z,0.35
2023-04-12T01:57:05.732Z,0.98
2023-04-12T02:09:06.228Z,0.20
2023-04-12T02:21:06.664Z,0.05
2023-04-12T02:33:07.157Z,0.93
2023-04-12T02:45:07.548Z,0.18
2023-04-12T02:57:08.037Z,0.03
2023-04-12T03:09:08.454Z,0.06
2023-04-12T03:21:08.912Z,0.10
2023-04-12T03:33:09.426Z,0.00
2023-04-12T03:45:09.824Z,0.11
2023-04-12T03:57:10.268Z,0.23
2023-04-12T04:09:10.711Z,0.00
2023-04-12T04:21:11.160Z,0.12
2023-04-12T04:33:11.666Z,0.01
2023-04-12T04:45:12.057Z,0.00
2023-04-12T04:57:12.537Z,0.24
2023-04-12T05:09:12.970Z,0.00
2023-04-12T05:21:13.469Z,0.00
2023-04-12T05:33:13.874Z,0.00
2023-04-12T05:45:14.319Z,0.37
2023-04-12T05:57:14.812Z,0.00
2023-04-12T06:09:15.262Z,0.70
2023-04-12T06:21:15.677Z,0.97
2023-04-12T06:33:16.135Z,1.07
2023-04-12T06:45:16.615Z,0.33
2023-04-12T06:57:17.050Z,0.20
2023-04-12T07:09:17.822Z,0.00
2023-04-12T07:21:17.983Z,0.00
2023-04-12T07:33:19.971Z,0.84
2023-04-12T07:45:18.901Z,1.56
2023-04-12T07:57:19.338Z,1.16
2023-04-12T08:09:19.735Z,1.06
2023-04-12T08:21:20.216Z,0.92
2023-04-12T08:33:20.683Z,1.77
2023-04-12T08:45:21.118Z,1.87
2023-04-12T08:57:21.546Z,1.70
2023-04-12T09:09:22.026Z,1.90
2023-04-12T09:21:22.504Z,2.03
2023-04-12T09:33:22.979Z,1.91
2023-04-12T09:45:23.394Z,2.90
2023-04-12T09:57:23.841Z,4.49
2023-04-12T10:09:24.325Z,4.29
2023-04-12T10:21:24.759Z,3.69
2023-04-12T10:33:25.198Z,1.93
2023-04-12T10:45:25.680Z,1.86
2023-04-12T10:57:26.283Z,3.56
2023-04-12T11:09:26.567Z,2.22
2023-04-12T11:21:27.025Z,2.10
2023-04-12T11:33:27.448Z,2.60
2023-04-12T11:45:27.945Z,1.62
2023-04-12T11:57:28.378Z,4.21
2023-04-12T12:09:28.834Z,2.16
2023-04-12T12:21:29.290Z,2.67
2023-04-12T12:33:45.177Z,2.00
2023-04-12T12:45:30.189Z,1.88
2023-04-12T12:57:30.815Z,0.81
2023-04-12T13:09:31.106Z,1.36
2023-04-12T13:21:31.628Z,1.59
2023-04-12T13:33:32.043Z,2.89
2023-04-12T13:45:34.194Z,2.75
2023-04-12T13:57:32.923Z,2.90
2023-04-12T14:09:33.429Z,1.95
2023-04-12T14:21:33.833Z,1.37
2023-04-12T14:33:34.296Z,2.00
2023-04-12T14:45:34.728Z,2.85
2023-04-12T14:57:35.208Z,2.77
2023-04-12T15:09:35.634Z,1.68
2023-04-12T15:21:36.099Z,1.49
2023-04-12T15:33:36.563Z,1.62
2023-04-12T15:45:37.040Z,0.58
2023-04-12T15:57:37.473Z,1.77
2023-04-12T16:09:37.936Z,1.68
2023-04-12T16:21:38.367Z,1.04
2023-04-12T16:33:38.870Z,1.16
2023-04-12T16:45:39.296Z,1.57
2023-04-12T16:57:39.730Z,0.68
2023-04-12T17:09:40.222Z,0.46
2023-04-12T17:21:40.649Z,0.28
2023-04-12T17:33:41.118Z,0.35
2023-04-12T17:45:41.567Z,0.27
2023-04-12T17:57:42.163Z,0.49
2023-04-12T18:09:43.117Z,0.06
2023-04-12T18:21:43.690Z,0.37
2023-04-12T18:33:43.361Z,0.70
2023-04-12T18:45:43.802Z,0.27
2023-04-12T18:57:45.220Z,1.05
2023-04-12T19:09:44.748Z,0.69
2023-04-12T19:21:45.160Z,0.54
2023-04-12T19:33:45.679Z,0.82
2023-04-12T19:45:46.159Z,2.09
2023-04-12T19:57:46.551Z,2.19
2023-04-12T20:09:47.005Z,1.89
2023-04-12T20:21:47.533Z,1.39
2023-04-12T20:33:47.966Z,2.17
2023-04-12T20:45:48.375Z,2.08
2023-04-12T20:57:48.797Z,0.88
2023-04-12T21:09:49.272Z,2.22
2023-04-12T21:21:49.749Z,1.88
2023-04-12T21:33:50.157Z,1.98
2023-04-12T21:45:50.683Z,2.08
2023-04-12T21:57:52.833Z,2.52
2023-04-12T22:09:51.554Z,2.06
2023-04-12T22:21:52.027Z,1.63
2023-04-12T22:33:52.491Z,0.96
2023-04-12T22:45:52.950Z,0.30
2023-04-12T22:57:53.364Z,1.11
2023-04-12T23:09:53.826Z,0.00
2023-04-12T23:21:54.236Z,0.01
2023-04-12T23:33:54.743Z,0.03
2023-04-12T23:45:55.209Z,0.13
2023-04-12T23:57:55.617Z,0.00
